Time;durP1;ratioP1;P1;durP2;ratioP2;P2;SDS_P1;SDS_P2;PMS_P1;PMS_P2;Temp;Humidity;BMP_temperature;BMP_pressure;BME280_temperature;BME280_humidity;BME280_pressure;Samples;Min_cycle;Max_cycle;Signal;HPM_P1;HPM_P2
2023/08/27 00:00:45;;;;;;;5.70;2.95;;;;;;;;;;5069470;28;20082;-71
2023/08/27 00:03:10;;;;;;;5.57;2.88;;;;;;;;;;5069077;28;20056;-71
2023/08/27 00:05:42;;;;;;;3.65;2.80;;;;;;;;;;5069512;28;20155;-71
2023/08/27 00:08:08;;;;;;;3.20;2.67;;;;;;;;;;5051915;28;20025;-71
2023/08/27 00:10:34;;;;;;;2.95;2.60;;;;;;;;;;5069909;28;20033;-71
2023/08/27 00:12:59;;;;;;;4.13;2.28;;;;;;;;;;5070195;28;20079;-73
2023/08/27 00:15:25;;;;;;;2.80;2.40;;;;;;;;;;5070270;28;20032;-72
2023/08/27 00:17:50;;;;;;;3.95;2.90;;;;;;;;;;5052509;28;20028;-72
2023/08/27 00:20:16;;;;;;;3.22;2.63;;;;;;;;;;5051923;28;20098;-71
2023/08/27 00:22:41;;;;;;;3.88;2.58;;;;;;;;;;5051770;28;20033;-72
2023/08/27 00:25:07;;;;;;;12.60;3.03;;;;;;;;;;5069762;28;20059;-71
2023/08/27 00:27:33;;;;;;;2.78;2.50;;;;;;;;;;5070114;28;20039;-72
2023/08/27 00:30:00;;;;;;;3.30;2.42;;;;;;;;;;5031957;28;20095;-72
2023/08/27 00:32:28;;;;;;;4.82;2.50;;;;;;;;;;5036429;28;20037;-76
2023/08/27 00:34:53;;;;;;;5.35;2.40;;;;;;;;;;5035224;28;20376;-72
2023/08/27 00:37:19;;;;;;;2.75;2.20;;;;;;;;;;5034657;28;20036;-72
2023/08/27 00:39:44;;;;;;;2.60;2.40;;;;;;;;;;5035269;28;20095;-72
2023/08/27 00:42:10;;;;;;;3.50;2.22;;;;;;;;;;5036238;28;20031;-71
2023/08/27 00:44:35;;;;;;;2.53;2.05;;;;;;;;;;5035244;28;20562;-72
2023/08/27 00:47:01;;;;;;;2.80;2.28;;;;;;;;;;5036753;28;20036;-71
2023/08/27 00:49:26;;;;;;;2.40;2.13;;;;;;;;;;5035686;28;20025;-74
2023/08/27 00:51:52;;;;;;;3.97;2.45;;;;;;;;;;5035168;28;20037;-76
2023/08/27 00:54:18;;;;;;;3.97;2.33;;;;;;;;;;5036212;28;20036;-72
2023/08/27 00:56:44;;;;;;;2.28;2.15;;;;;;;;;;5035226;28;20380;-67
2023/08/27 00:59:10;;;;;;;2.53;2.17;;;;;;;;;;5034514;28;20033;-62
2023/08/27 01:01:37;;;;;;;2.92;2.13;;;;;;;;;;5034658;28;20029;-62
2023/08/27 01:04:02;;;;;;;2.20;2.00;;;;;;;;;;5034514;28;20038;-62
2023/08/27 01:06:28;;;;;;;3.05;2.28;;;;;;;;;;5034621;28;20033;-62
2023/08/27 01:09:06;;;;;;;2.88;2.30;;;;;;;;;;5034989;28;20033;-63
2023/08/27 01:11:50;;;;;;;3.42;2.17;;;;;;;;;;5034444;28;20423;-62
2023/08/27 01:14:16;;;;;;;4.80;2.72;;;;;;;;;;5034352;28;20025;-61
2023/08/27 01:16:43;;;;;;;3.28;2.38;;;;;;;;;;5017845;28;20025;-61
2023/08/27 01:19:15;;;;;;;3.13;2.20;;;;;;;;;;5034671;28;20037;-62
2023/08/27 01:21:41;;;;;;;2.75;2.53;;;;;;;;;;5035873;28;20029;-62
2023/08/27 01:24:07;;;;;;;2.78;1.88;;;;;;;;;;5036023;28;20082;-62
2023/08/27 01:26:45;;;;;;;2.45;2.25;;;;;;;;;;5034353;28;20101;-62
2023/08/27 01:29:33;;;;;;;2.10;1.95;;;;;;;;;;5034647;28;20052;-62
2023/08/27 01:32:15;;;;;;;1.80;1.70;;;;;;;;;;5029852;28;20042;-62
2023/08/27 01:34:41;;;;;;;2.20;1.95;;;;;;;;;;5034435;28;20056;-62
2023/08/27 01:37:08;;;;;;;3.35;2.17;;;;;;;;;;5034604;28;20075;-62
2023/08/27 01:39:33;;;;;;;2.53;2.17;;;;;;;;;;5035215;28;20043;-62
2023/08/27 01:41:58;;;;;;;3.05;2.20;;;;;;;;;;5034050;28;20469;-62
2023/08/27 01:44:24;;;;;;;3.50;2.38;;;;;;;;;;5034035;28;20021;-62
2023/08/27 01:46:50;;;;;;;2.60;2.28;;;;;;;;;;5033913;28;20024;-62
2023/08/27 01:49:15;;;;;;;2.50;2.15;;;;;;;;;;5033583;28;20396;-62
2023/08/27 01:51:41;;;;;;;3.00;2.30;;;;;;;;;;5035022;28;20468;-62
2023/08/27 01:54:06;;;;;;;2.85;1.95;;;;;;;;;;5033596;28;20040;-62
2023/08/27 01:56:32;;;;;;;2.05;1.85;;;;;;;;;;5033543;28;20469;-62
2023/08/27 01:58:58;;;;;;;3.85;1.80;;;;;;;;;;5034031;28;20059;-62
2023/08/27 02:01:23;;;;;;;3.13;1.90;;;;;;;;;;5033896;28;20053;-62
2023/08/27 02:03:50;;;;;;;2.20;2.00;;;;;;;;;;5033915;28;20028;-62
2023/08/27 02:06:15;;;;;;;2.38;1.80;;;;;;;;;;5033466;28;20428;-62
2023/08/27 02:08:41;;;;;;;3.85;1.80;;;;;;;;;;5016698;28;20535;-62
2023/08/27 02:11:06;;;;;;;3.10;1.73;;;;;;;;;;5033207;28;20032;-62
2023/08/27 02:13:32;;;;;;;2.83;2.20;;;;;;;;;;5033712;28;20034;-62
2023/08/27 02:15:57;;;;;;;3.33;1.98;;;;;;;;;;5035020;28;20061;-62
2023/08/27 02:18:23;;;;;;;2.55;1.98;;;;;;;;;;5033689;28;20040;-62
2023/08/27 02:20:49;;;;;;;3.22;1.90;;;;;;;;;;5033396;28;20029;-61
2023/08/27 02:23:14;;;;;;;1.90;1.65;;;;;;;;;;5016739;28;20034;-61
2023/08/27 02:25:41;;;;;;;1.77;1.67;;;;;;;;;;5033577;28;20021;-61
2023/08/27 02:28:06;;;;;;;2.25;2.05;;;;;;;;;;5033053;28;20056;-62
2023/08/27 02:30:32;;;;;;;2.00;1.90;;;;;;;;;;5044783;28;20045;-61
2023/08/27 02:32:58;;;;;;;2.55;2.35;;;;;;;;;;5036455;28;20024;-61
2023/08/27 02:35:24;;;;;;;2.70;2.20;;;;;;;;;;5036725;28;20035;-62
2023/08/27 02:37:51;;;;;;;2.38;2.00;;;;;;;;;;5020246;28;20441;-61
2023/08/27 02:40:17;;;;;;;2.20;2.00;;;;;;;;;;5036488;28;20025;-61
2023/08/27 02:42:44;;;;;;;3.28;2.30;;;;;;;;;;5036155;28;20029;-61
2023/08/27 02:45:09;;;;;;;3.58;2.20;;;;;;;;;;5036380;28;20025;-62
2023/08/27 02:47:35;;;;;;;2.33;2.13;;;;;;;;;;5036552;28;20476;-61
2023/08/27 02:50:00;;;;;;;2.88;2.38;;;;;;;;;;5036185;28;20037;-61
2023/08/27 02:52:25;;;;;;;2.88;2.53;;;;;;;;;;5036138;28;20100;-62
2023/08/27 02:54:51;;;;;;;2.47;1.98;;;;;;;;;;5053970;28;20502;-62
2023/08/27 02:57:17;;;;;;;1.98;1.88;;;;;;;;;;5053983;28;20431;-62
2023/08/27 02:59:42;;;;;;;2.30;2.10;;;;;;;;;;5036197;28;20040;-62
2023/08/27 03:02:08;;;;;;;1.95;1.85;;;;;;;;;;5019822;28;20369;-62
2023/08/27 03:04:33;;;;;;;3.78;1.83;;;;;;;;;;5035635;28;20025;-62
2023/08/27 03:06:58;;;;;;;2.45;2.00;;;;;;;;;;5036238;28;20065;-62
2023/08/27 03:09:24;;;;;;;1.88;1.77;;;;;;;;;;5036050;28;20040;-62
2023/08/27 03:11:49;;;;;;;2.30;1.95;;;;;;;;;;5054067;28;20036;-62
2023/08/27 03:14:15;;;;;;;2.25;2.05;;;;;;;;;;5053855;28;20035;-62
2023/08/27 03:16:40;;;;;;;1.98;1.88;;;;;;;;;;5035926;28;20499;-62
2023/08/27 03:19:06;;;;;;;3.45;1.88;;;;;;;;;;5036083;28;20035;-62
2023/08/27 03:21:31;;;;;;;2.00;1.90;;;;;;;;;;5035945;28;20021;-61
2023/08/27 03:23:57;;;;;;;2.00;1.90;;;;;;;;;;5019610;28;20064;-62
2023/08/27 03:26:22;;;;;;;2.47;2.30;;;;;;;;;;5035712;28;20029;-62
2023/08/27 03:28:47;;;;;;;2.38;2.17;;;;;;;;;;5053460;28;20059;-62
2023/08/27 03:31:13;;;;;;;2.80;2.60;;;;;;;;;;5053307;28;20124;-62
2023/08/27 03:33:39;;;;;;;2.30;2.10;;;;;;;;;;5035524;28;20036;-62
2023/08/27 03:36:04;;;;;;;2.95;2.35;;;;;;;;;;5034476;28;20368;-62
2023/08/27 03:38:30;;;;;;;2.55;2.35;;;;;;;;;;5034607;28;20029;-62
2023/08/27 03:40:55;;;;;;;2.45;2.25;;;;;;;;;;5034810;28;20048;-62
2023/08/27 03:43:21;;;;;;;2.95;2.75;;;;;;;;;;5035367;28;20048;-63
2023/08/27 03:45:47;;;;;;;3.42;2.72;;;;;;;;;;5035676;28;20032;-62
2023/08/27 03:48:12;;;;;;;3.00;2.80;;;;;;;;;;5035673;28;20032;-62
2023/08/27 03:50:38;;;;;;;3.10;2.90;;;;;;;;;;5053186;28;20379;-62
2023/08/27 03:53:05;;;;;;;4.35;3.15;;;;;;;;;;5053666;28;20047;-62
2023/08/27 03:55:30;;;;;;;3.38;3.08;;;;;;;;;;5035522;28;20031;-62
2023/08/27 03:57:56;;;;;;;3.38;3.08;;;;;;;;;;5035518;28;20017;-63
2023/08/27 04:00:22;;;;;;;3.35;3.05;;;;;;;;;;5035071;28;20065;-63
2023/08/27 04:02:47;;;;;;;3.25;2.95;;;;;;;;;;5053411;28;20061;-63
2023/08/27 04:05:12;;;;;;;3.13;2.92;;;;;;;;;;5018093;28;20026;-63
2023/08/27 04:07:38;;;;;;;3.53;2.55;;;;;;;;;;5055628;28;20052;-62
2023/08/27 04:10:04;;;;;;;3.53;3.30;;;;;;;;;;5056434;28;20031;-62
2023/08/27 04:12:33;;;;;;;3.38;3.03;;;;;;;;;;5038727;28;20017;-62
2023/08/27 04:14:58;;;;;;;3.03;2.83;;;;;;;;;;5022879;28;20029;-62
2023/08/27 04:17:24;;;;;;;3.58;3.28;;;;;;;;;;5039437;28;20040;-62
2023/08/27 04:19:49;;;;;;;3.50;2.97;;;;;;;;;;5038802;28;20024;-62
2023/08/27 04:22:14;;;;;;;3.72;3.40;;;;;;;;;;5039047;28;20029;-62
2023/08/27 04:24:41;;;;;;;3.10;2.80;;;;;;;;;;5038997;28;20028;-62
2023/08/27 04:27:07;;;;;;;3.33;3.03;;;;;;;;;;5056490;28;20033;-62
2023/08/27 04:29:32;;;;;;;3.00;2.80;;;;;;;;;;5038310;28;20037;-62
2023/08/27 04:31:57;;;;;;;3.78;3.17;;;;;;;;;;5056791;28;20028;-62
2023/08/27 04:34:23;;;;;;;3.47;3.17;;;;;;;;;;5038090;28;20029;-62
2023/08/27 04:36:48;;;;;;;3.30;2.53;;;;;;;;;;5037228;28;20033;-62
2023/08/27 04:39:13;;;;;;;2.97;2.75;;;;;;;;;;5037569;28;20055;-62
2023/08/27 04:41:40;;;;;;;2.85;2.65;;;;;;;;;;5056608;28;20538;-62
2023/08/27 04:44:05;;;;;;;2.70;2.50;;;;;;;;;;5038727;28;20020;-62
2023/08/27 04:46:30;;;;;;;2.47;2.33;;;;;;;;;;5038223;28;20433;-62
2023/08/27 04:48:56;;;;;;;3.40;2.60;;;;;;;;;;5055626;28;20033;-62
2023/08/27 04:51:21;;;;;;;2.50;2.40;;;;;;;;;;5038145;28;20128;-62
2023/08/27 04:53:47;;;;;;;3.08;2.40;;;;;;;;;;5038010;28;20029;-62
2023/08/27 04:56:12;;;;;;;3.13;2.33;;;;;;;;;;5055917;28;20385;-62
2023/08/27 04:58:38;;;;;;;2.45;2.03;;;;;;;;;;5038344;28;20123;-62
2023/08/27 05:01:04;;;;;;;2.63;2.40;;;;;;;;;;5038313;28;20044;-62
2023/08/27 05:03:29;;;;;;;2.60;2.25;;;;;;;;;;5038285;28;20017;-62
2023/08/27 05:05:55;;;;;;;3.25;2.50;;;;;;;;;;5038089;28;20021;-62
2023/08/27 05:08:20;;;;;;;2.50;2.30;;;;;;;;;;5055746;28;20392;-62
2023/08/27 05:10:45;;;;;;;6.05;2.45;;;;;;;;;;5038172;28;20392;-62
2023/08/27 05:13:11;;;;;;;2.72;2.45;;;;;;;;;;5038114;28;20029;-62
2023/08/27 05:15:36;;;;;;;2.83;2.65;;;;;;;;;;5021419;28;20074;-62
2023/08/27 05:18:02;;;;;;;4.22;2.72;;;;;;;;;;5038210;28;20102;-62
2023/08/27 05:20:28;;;;;;;6.05;2.40;;;;;;;;;;5036684;28;20074;-62
2023/08/27 05:22:54;;;;;;;3.35;2.38;;;;;;;;;;5055379;28;20025;-62
2023/08/27 05:25:19;;;;;;;3.08;2.78;;;;;;;;;;5036455;28;20594;-62
2023/08/27 05:27:46;;;;;;;2.58;2.38;;;;;;;;;;5036927;28;20510;-62
2023/08/27 05:30:13;;;;;;;2.17;2.08;;;;;;;;;;5037180;28;20060;-62
2023/08/27 05:32:39;;;;;;;2.85;2.65;;;;;;;;;;5037162;28;20029;-62
2023/08/27 05:35:07;;;;;;;2.60;2.40;;;;;;;;;;5037030;28;20044;-62
2023/08/27 05:37:32;;;;;;;3.65;3.35;;;;;;;;;;5037087;28;20041;-61
2023/08/27 05:39:58;;;;;;;4.38;3.03;;;;;;;;;;5036743;28;20115;-61
2023/08/27 05:42:23;;;;;;;3.15;2.85;;;;;;;;;;5055060;28;20040;-62
2023/08/27 05:44:49;;;;;;;3.38;3.08;;;;;;;;;;5055686;28;20013;-61
2023/08/27 05:47:16;;;;;;;4.15;3.03;;;;;;;;;;5037711;28;20029;-62
2023/08/27 05:49:43;;;;;;;3.42;3.13;;;;;;;;;;5037706;28;20133;-61
2023/08/27 05:52:08;;;;;;;4.05;3.55;;;;;;;;;;5036953;28;20116;-61
2023/08/27 05:54:33;;;;;;;4.63;3.50;;;;;;;;;;5054932;28;20447;-62
2023/08/27 05:56:59;;;;;;;4.15;3.75;;;;;;;;;;5036725;28;20029;-62
2023/08/27 05:59:24;;;;;;;4.95;3.65;;;;;;;;;;5036434;28;20033;-61
2023/08/27 06:01:52;;;;;;;5.65;3.45;;;;;;;;;;5036551;28;20052;-61
2023/08/27 06:04:18;;;;;;;5.47;3.67;;;;;;;;;;5036239;28;20132;-62
2023/08/27 06:06:43;;;;;;;4.90;4.07;;;;;;;;;;5036851;28;20033;-62
2023/08/27 06:09:09;;;;;;;5.45;3.92;;;;;;;;;;5036382;28;20029;-62
2023/08/27 06:11:34;;;;;;;8.43;5.45;;;;;;;;;;5036270;28;20089;-62
2023/08/27 06:13:59;;;;;;;7.22;5.00;;;;;;;;;;5036163;28;20021;-62
2023/08/27 06:16:25;;;;;;;6.15;4.18;;;;;;;;;;5036306;28;20123;-62
2023/08/27 06:18:50;;;;;;;8.48;5.28;;;;;;;;;;5036150;28;20032;-61
2023/08/27 06:21:17;;;;;;;6.28;5.15;;;;;;;;;;5019725;28;20162;-62
2023/08/27 06:23:42;;;;;;;5.38;4.85;;;;;;;;;;5053882;28;20124;-62
2023/08/27 06:26:08;;;;;;;8.30;5.18;;;;;;;;;;5036092;28;20029;-62
2023/08/27 06:28:33;;;;;;;6.88;5.15;;;;;;;;;;5035603;28;20017;-61
2023/08/27 06:30:59;;;;;;;9.27;5.28;;;;;;;;;;5053640;28;20157;-64
2023/08/27 06:33:25;;;;;;;6.90;4.72;;;;;;;;;;5035547;28;20032;-63
2023/08/27 06:35:50;;;;;;;7.70;4.82;;;;;;;;;;5035846;28;20028;-63
2023/08/27 06:38:17;;;;;;;8.40;5.15;;;;;;;;;;5036099;28;20108;-63
2023/08/27 06:40:42;;;;;;;9.52;5.43;;;;;;;;;;5035670;28;20060;-62
2023/08/27 06:43:08;;;;;;;9.63;5.30;;;;;;;;;;5053254;28;20052;-63
2023/08/27 06:45:41;;;;;;;10.73;6.13;;;;;;;;;;5035255;28;20021;-63
2023/08/27 06:48:09;;;;;;;12.75;7.38;;;;;;;;;;5035245;28;20036;-63
2023/08/27 06:50:35;;;;;;;11.63;6.13;;;;;;;;;;5035203;28;20159;-62
2023/08/27 06:53:00;;;;;;;9.35;6.35;;;;;;;;;;5035543;28;20048;-67
2023/08/27 06:55:25;;;;;;;12.00;6.63;;;;;;;;;;5035546;28;20040;-71
2023/08/27 06:57:52;;;;;;;11.10;6.82;;;;;;;;;;5035548;28;20393;-68
2023/08/27 07:00:18;;;;;;;9.50;6.60;;;;;;;;;;5053367;28;20055;-68
2023/08/27 07:02:44;;;;;;;13.00;7.07;;;;;;;;;;5035419;28;20036;-67
2023/08/27 07:05:09;;;;;;;11.68;6.20;;;;;;;;;;5035555;28;20032;-68
2023/08/27 07:07:38;;;;;;;10.15;5.72;;;;;;;;;;5034787;28;20483;-68
2023/08/27 07:10:08;;;;;;;10.45;5.40;;;;;;;;;;5034920;28;20178;-68
2023/08/27 07:12:41;;;;;;;8.18;4.97;;;;;;;;;;5053253;28;20519;-67
2023/08/27 07:15:07;;;;;;;6.90;4.40;;;;;;;;;;5035380;28;20025;-67
2023/08/27 07:17:33;;;;;;;7.40;5.00;;;;;;;;;;5034872;28;20036;-68
2023/08/27 07:20:03;;;;;;;5.10;4.60;;;;;;;;;;5034105;28;20068;-67
2023/08/27 07:22:29;;;;;;;5.32;4.25;;;;;;;;;;5042145;28;20502;-65
2023/08/27 07:24:55;;;;;;;6.45;4.57;;;;;;;;;;5034985;28;20076;-68
2023/08/27 07:27:21;;;;;;;4.22;3.85;;;;;;;;;;5018259;28;20017;-68
2023/08/27 07:29:47;;;;;;;5.20;4.25;;;;;;;;;;5034776;28;20087;-68
2023/08/27 07:32:13;;;;;;;4.63;3.97;;;;;;;;;;5052693;28;20099;-68
2023/08/27 07:34:38;;;;;;;3.92;3.63;;;;;;;;;;5053175;28;20468;-79
2023/08/27 07:37:05;;;;;;;3.80;3.40;;;;;;;;;;5035610;28;20067;-80
2023/08/27 07:39:34;;;;;;;3.80;3.50;;;;;;;;;;5053407;28;20025;-78
2023/08/27 07:42:00;;;;;;;3.85;3.65;;;;;;;;;;5037582;28;20029;-69
2023/08/27 07:44:28;;;;;;;3.83;3.53;;;;;;;;;;5039618;28;20021;-68
2023/08/27 07:46:54;;;;;;;3.30;3.10;;;;;;;;;;5039302;28;20033;-68
2023/08/27 07:49:19;;;;;;;3.70;3.47;;;;;;;;;;5038532;28;20048;-69
2023/08/27 07:51:46;;;;;;;4.28;3.88;;;;;;;;;;5038937;28;20476;-77
2023/08/27 07:54:13;;;;;;;3.75;3.55;;;;;;;;;;5039714;28;20029;-78
2023/08/27 07:56:38;;;;;;;3.72;3.42;;;;;;;;;;5039489;28;20122;-78
2023/08/27 07:59:09;;;;;;;4.25;3.80;;;;;;;;;;5039815;28;20134;-78
2023/08/27 08:01:35;;;;;;;4.30;3.40;;;;;;;;;;5039438;28;20040;-73
2023/08/27 08:04:07;;;;;;;3.60;3.33;;;;;;;;;;5039277;28;20019;-66
2023/08/27 08:06:32;;;;;;;4.25;3.70;;;;;;;;;;5056914;28;20032;-71
2023/08/27 08:08:58;;;;;;;4.97;4.05;;;;;;;;;;5039585;28;20020;-71
2023/08/27 08:11:24;;;;;;;4.78;3.90;;;;;;;;;;5056774;28;20025;-73
2023/08/27 08:13:49;;;;;;;5.70;4.47;;;;;;;;;;5056701;28;20025;-65
2023/08/27 08:16:14;;;;;;;8.10;5.07;;;;;;;;;;5056639;28;20094;-67
2023/08/27 08:18:40;;;;;;;4.82;3.67;;;;;;;;;;5038762;28;20503;-66
2023/08/27 08:21:06;;;;;;;6.40;4.97;;;;;;;;;;5038120;28;20071;-66
2023/08/27 08:23:31;;;;;;;6.00;4.72;;;;;;;;;;5055249;28;20480;-77
2023/08/27 08:25:58;;;;;;;6.13;5.22;;;;;;;;;;5055179;28;20075;-77
2023/08/27 08:28:23;;;;;;;5.93;4.93;;;;;;;;;;5054933;28;20414;-77
2023/08/27 08:30:49;;;;;;;6.15;5.60;;;;;;;;;;5033588;28;20104;-66
2023/08/27 08:33:14;;;;;;;4.97;4.55;;;;;;;;;;5033420;28;20037;-66
2023/08/27 08:35:40;;;;;;;5.55;4.93;;;;;;;;;;5034866;28;20392;-66
2023/08/27 08:38:05;;;;;;;5.82;5.15;;;;;;;;;;5034998;28;20017;-78
2023/08/27 08:40:34;;;;;;;4.85;4.45;;;;;;;;;;5034065;28;20424;-76
2023/08/27 08:43:00;;;;;;;6.07;5.40;;;;;;;;;;5035492;28;20034;-69
2023/08/27 08:45:29;;;;;;;4.57;4.28;;;;;;;;;;5034886;28;20021;-68
2023/08/27 08:47:56;;;;;;;5.40;5.00;;;;;;;;;;5035998;28;20183;-75
2023/08/27 08:50:21;;;;;;;5.10;4.68;;;;;;;;;;5036038;28;20067;-75
2023/08/27 08:52:48;;;;;;;6.70;6.10;;;;;;;;;;5035785;28;20045;-75
2023/08/27 08:55:14;;;;;;;5.43;4.95;;;;;;;;;;5035184;28;20040;-69
2023/08/27 08:57:44;;;;;;;5.82;5.40;;;;;;;;;;5035903;28;20022;-75
2023/08/27 09:00:11;;;;;;;5.35;4.95;;;;;;;;;;5033420;28;20044;-69
2023/08/27 09:02:36;;;;;;;6.50;5.97;;;;;;;;;;5036069;28;20442;-69
2023/08/27 09:05:04;;;;;;;7.15;6.45;;;;;;;;;;5035429;28;20048;-69
2023/08/27 09:07:32;;;;;;;6.05;5.65;;;;;;;;;;5033449;28;20033;-69
2023/08/27 09:09:57;;;;;;;5.35;4.95;;;;;;;;;;5033322;28;20384;-69
2023/08/27 09:12:24;;;;;;;4.90;4.50;;;;;;;;;;5032383;28;20100;-69
2023/08/27 09:14:50;;;;;;;5.03;4.72;;;;;;;;;;5015256;28;20253;-69
2023/08/27 09:17:18;;;;;;;10.35;5.35;;;;;;;;;;5032047;28;20380;-69
2023/08/27 09:19:46;;;;;;;6.97;6.25;;;;;;;;;;5032762;28;20040;-69
2023/08/27 09:22:11;;;;;;;6.20;5.65;;;;;;;;;;5032803;28;20021;-69
2023/08/27 09:24:36;;;;;;;5.35;4.95;;;;;;;;;;5032757;28;20029;-69
2023/08/27 09:27:02;;;;;;;5.25;4.95;;;;;;;;;;5034663;28;20036;-69
2023/08/27 09:29:28;;;;;;;5.13;4.72;;;;;;;;;;5035871;28;20069;-69
2023/08/27 09:31:55;;;;;;;6.13;5.72;;;;;;;;;;5055205;28;20029;-69
2023/08/27 09:34:20;;;;;;;5.15;4.82;;;;;;;;;;5055120;28;20024;-69
2023/08/27 09:36:46;;;;;;;6.57;6.05;;;;;;;;;;5055294;28;20166;-69
2023/08/27 09:39:12;;;;;;;6.97;6.38;;;;;;;;;;5054967;28;20029;-69
2023/08/27 09:41:38;;;;;;;5.43;5.03;;;;;;;;;;5037247;28;20433;-69
2023/08/27 09:44:05;;;;;;;5.63;5.22;;;;;;;;;;5054894;28;20024;-69
2023/08/27 09:46:30;;;;;;;5.70;5.30;;;;;;;;;;5054939;28;20475;-69
2023/08/27 09:48:57;;;;;;;6.30;5.80;;;;;;;;;;5037078;28;20024;-69
2023/08/27 09:51:23;;;;;;;6.40;5.90;;;;;;;;;;5054767;28;20107;-69
2023/08/27 09:53:48;;;;;;;6.47;5.97;;;;;;;;;;5054793;28;20115;-69
2023/08/27 09:56:15;;;;;;;6.28;5.80;;;;;;;;;;5054317;28;20068;-69
2023/08/27 09:58:42;;;;;;;5.53;5.03;;;;;;;;;;5054718;28;20029;-69
2023/08/27 10:01:08;;;;;;;5.22;4.82;;;;;;;;;;5054445;28;20071;-69
2023/08/27 10:03:33;;;;;;;6.53;5.57;;;;;;;;;;5054028;28;20033;-69
2023/08/27 10:06:01;;;;;;;5.25;4.85;;;;;;;;;;5054347;28;20017;-70
2023/08/27 10:08:26;;;;;;;6.47;5.97;;;;;;;;;;5036845;28;20361;-70
2023/08/27 10:10:56;;;;;;;7.53;6.82;;;;;;;;;;5036687;28;20051;-69
2023/08/27 10:13:21;;;;;;;9.85;8.98;;;;;;;;;;5054380;28;20036;-69
2023/08/27 10:15:47;;;;;;;7.90;7.35;;;;;;;;;;5036426;28;20397;-69
2023/08/27 10:18:16;;;;;;;8.13;7.50;;;;;;;;;;5054297;28;20033;-69
2023/08/27 10:20:41;;;;;;;7.18;6.60;;;;;;;;;;5054188;28;20017;-69
2023/08/27 10:23:07;;;;;;;7.68;7.05;;;;;;;;;;5054186;28;20358;-69
2023/08/27 10:25:33;;;;;;;8.27;7.50;;;;;;;;;;5036123;28;20472;-69
2023/08/27 10:27:58;;;;;;;9.48;8.68;;;;;;;;;;5054124;28;20115;-69
2023/08/27 10:30:24;;;;;;;9.00;8.30;;;;;;;;;;5036050;28;20091;-69
2023/08/27 10:32:49;;;;;;;8.40;7.65;;;;;;;;;;5036244;28;20025;-70
2023/08/27 10:35:15;;;;;;;8.02;7.32;;;;;;;;;;5053940;28;20033;-69
2023/08/27 10:37:43;;;;;;;8.10;7.47;;;;;;;;;;5054003;28;20025;-69
2023/08/27 10:40:10;;;;;;;6.90;6.45;;;;;;;;;;5036042;28;20028;-69
2023/08/27 10:42:38;;;;;;;8.30;7.60;;;;;;;;;;5053939;28;20028;-69
2023/08/27 10:45:10;;;;;;;8.65;7.88;;;;;;;;;;5053902;28;20021;-69
2023/08/27 10:47:35;;;;;;;7.18;6.63;;;;;;;;;;5035907;28;20391;-69
2023/08/27 10:50:00;;;;;;;7.13;6.47;;;;;;;;;;5019419;28;20021;-69
2023/08/27 10:52:26;;;;;;;7.80;7.18;;;;;;;;;;5035943;28;20107;-69
2023/08/27 10:54:58;;;;;;;7.03;6.45;;;;;;;;;;5036021;28;20037;-69
2023/08/27 10:57:24;;;;;;;7.97;7.30;;;;;;;;;;5053702;28;20074;-69
2023/08/27 10:59:51;;;;;;;8.05;7.13;;;;;;;;;;5035767;28;20112;-69
2023/08/27 11:02:17;;;;;;;9.40;8.68;;;;;;;;;;5053645;28;20476;-69
2023/08/27 11:04:43;;;;;;;9.30;8.48;;;;;;;;;;5035662;28;20033;-69
2023/08/27 11:07:14;;;;;;;7.53;6.78;;;;;;;;;;5053630;28;20036;-69
2023/08/27 11:09:58;;;;;;;10.00;8.18;;;;;;;;;;5053442;28;20122;-69
2023/08/27 11:12:36;;;;;;;10.27;9.38;;;;;;;;;;5035661;28;20041;-69
2023/08/27 11:15:11;;;;;;;6.88;6.32;;;;;;;;;;5053231;28;20028;-69
2023/08/27 11:17:37;;;;;;;7.57;6.97;;;;;;;;;;5053326;28;20033;-69
2023/08/27 11:20:17;;;;;;;7.50;6.90;;;;;;;;;;5053291;28;20040;-70
2023/08/27 11:22:53;;;;;;;7.87;7.20;;;;;;;;;;5035491;28;20033;-69
2023/08/27 11:25:19;;;;;;;8.50;7.88;;;;;;;;;;5035562;28;20035;-69
2023/08/27 11:27:45;;;;;;;9.35;8.50;;;;;;;;;;5053243;28;20108;-69
2023/08/27 11:30:11;;;;;;;10.55;9.65;;;;;;;;;;5052601;28;20053;-69
2023/08/27 11:32:36;;;;;;;10.63;9.63;;;;;;;;;;5053318;28;20025;-69
2023/08/27 11:35:06;;;;;;;10.25;9.35;;;;;;;;;;5053302;28;20476;-69
2023/08/27 11:37:34;;;;;;;10.07;9.07;;;;;;;;;;5035555;28;20061;-70
2023/08/27 11:39:59;;;;;;;10.68;9.23;;;;;;;;;;5053179;28;20075;-70
2023/08/27 11:42:25;;;;;;;9.40;8.45;;;;;;;;;;5053237;28;20049;-70
2023/08/27 11:44:51;;;;;;;9.13;8.30;;;;;;;;;;5053186;28;20480;-70
2023/08/27 11:47:17;;;;;;;8.73;7.90;;;;;;;;;;5053238;28;20021;-70
2023/08/27 11:49:42;;;;;;;10.65;9.63;;;;;;;;;;5035490;28;20017;-70
2023/08/27 11:52:08;;;;;;;9.82;8.93;;;;;;;;;;5053068;28;20388;-70
2023/08/27 11:54:34;;;;;;;9.88;8.98;;;;;;;;;;5035150;28;20492;-70
2023/08/27 11:57:02;;;;;;;9.68;8.80;;;;;;;;;;5035155;28;20029;-70
2023/08/27 11:59:27;;;;;;;13.23;11.32;;;;;;;;;;5035067;28;20020;-70
2023/08/27 12:01:53;;;;;;;11.65;10.55;;;;;;;;;;5035125;28;20029;-70
2023/08/27 12:04:19;;;;;;;12.98;11.57;;;;;;;;;;5035279;28;20025;-70
2023/08/27 12:07:01;;;;;;;8.75;7.93;;;;;;;;;;5052991;28;20155;-70
2023/08/27 12:09:31;;;;;;;12.52;11.32;;;;;;;;;;5035465;28;20090;-70
2023/08/27 12:12:02;;;;;;;9.73;8.88;;;;;;;;;;5035005;28;20469;-70
2023/08/27 12:14:29;;;;;;;9.90;9.00;;;;;;;;;;5053068;28;20025;-70
2023/08/27 12:17:00;;;;;;;9.05;8.20;;;;;;;;;;5034996;28;20439;-70
2023/08/27 12:19:26;;;;;;;14.02;12.55;;;;;;;;;;5052755;28;20017;-70
2023/08/27 12:22:04;;;;;;;12.30;10.63;;;;;;;;;;5052684;28;20079;-70
2023/08/27 12:24:39;;;;;;;11.95;10.85;;;;;;;;;;5035093;28;20029;-71
2023/08/27 12:27:06;;;;;;;14.20;12.80;;;;;;;;;;5053312;28;20075;-70
2023/08/27 12:29:33;;;;;;;16.15;14.60;;;;;;;;;;5056354;28;20028;-70
2023/08/27 12:32:12;;;;;;;16.83;14.38;;;;;;;;;;5056335;28;20480;-70
2023/08/27 12:34:47;;;;;;;15.45;13.88;;;;;;;;;;5056333;28;20029;-70
2023/08/27 12:37:13;;;;;;;14.57;12.70;;;;;;;;;;5056357;28;20036;-70
2023/08/27 12:39:38;;;;;;;13.38;12.07;;;;;;;;;;5056215;28;20037;-70
2023/08/27 12:42:04;;;;;;;13.45;11.98;;;;;;;;;;5056287;28;20021;-70
2023/08/27 12:44:30;;;;;;;14.55;13.02;;;;;;;;;;5056291;28;20032;-70
2023/08/27 12:46:56;;;;;;;17.08;14.35;;;;;;;;;;5056106;28;20521;-70
2023/08/27 12:49:21;;;;;;;16.92;15.13;;;;;;;;;;5056064;28;20484;-70
2023/08/27 12:51:46;;;;;;;14.10;12.73;;;;;;;;;;5056071;28;20081;-70
2023/08/27 12:54:12;;;;;;;11.32;10.15;;;;;;;;;;5038387;28;20050;-70
2023/08/27 12:56:37;;;;;;;12.77;11.60;;;;;;;;;;5056065;28;20111;-70
2023/08/27 12:59:03;;;;;;;15.70;13.27;;;;;;;;;;5055869;28;20032;-70
2023/08/27 13:01:29;;;;;;;11.77;10.73;;;;;;;;;;5055783;28;20048;-70
2023/08/27 13:03:54;;;;;;;12.75;11.48;;;;;;;;;;5055779;28;20025;-70
2023/08/27 13:06:20;;;;;;;11.88;10.73;;;;;;;;;;5055978;28;20376;-70
2023/08/27 13:08:45;;;;;;;14.23;12.15;;;;;;;;;;5038079;28;20021;-70
2023/08/27 13:11:10;;;;;;;15.85;14.27;;;;;;;;;;5021356;28;20017;-70
2023/08/27 13:13:37;;;;;;;13.57;11.93;;;;;;;;;;5055659;28;20058;-70
2023/08/27 13:16:02;;;;;;;15.90;14.30;;;;;;;;;;5055559;28;20033;-70
2023/08/27 13:18:27;;;;;;;15.60;14.05;;;;;;;;;;5037554;28;20115;-70
2023/08/27 13:20:53;;;;;;;14.07;12.60;;;;;;;;;;5055341;28;20112;-69
2023/08/27 13:23:20;;;;;;;20.92;17.08;;;;;;;;;;5037578;28;20496;-69
2023/08/27 13:25:45;;;;;;;16.08;13.80;;;;;;;;;;5055386;28;20021;-70
2023/08/27 13:28:11;;;;;;;19.63;17.60;;;;;;;;;;5055328;28;20044;-70
2023/08/27 13:30:36;;;;;;;19.05;17.13;;;;;;;;;;5055101;28;20510;-70
2023/08/27 13:33:01;;;;;;;18.73;16.70;;;;;;;;;;5037557;28;20111;-70
2023/08/27 13:35:27;;;;;;;18.90;17.00;;;;;;;;;;5037351;28;20049;-70
2023/08/27 13:37:52;;;;;;;18.27;16.35;;;;;;;;;;5055258;28;20392;-70
2023/08/27 13:40:18;;;;;;;21.10;18.17;;;;;;;;;;5054978;28;20036;-70
2023/08/27 13:42:44;;;;;;;22.38;18.52;;;;;;;;;;5036908;28;20033;-70
2023/08/27 13:45:09;;;;;;;19.40;17.35;;;;;;;;;;5055095;28;20013;-70
2023/08/27 13:47:34;;;;;;;21.83;19.42;;;;;;;;;;5054962;28;20112;-70
2023/08/27 13:50:01;;;;;;;21.42;19.17;;;;;;;;;;5054958;28;20113;-70
2023/08/27 13:52:26;;;;;;;22.60;18.13;;;;;;;;;;5037221;28;20127;-70
2023/08/27 13:54:51;;;;;;;21.67;17.63;;;;;;;;;;5055127;28;20480;-70
2023/08/27 13:57:17;;;;;;;16.70;14.50;;;;;;;;;;5037112;28;20064;-70
2023/08/27 13:59:42;;;;;;;17.98;16.17;;;;;;;;;;5054658;28;20491;-70
2023/08/27 14:02:08;;;;;;;19.67;16.95;;;;;;;;;;5054632;28;20035;-70
2023/08/27 14:04:33;;;;;;;20.05;17.83;;;;;;;;;;5054625;28;20362;-70
2023/08/27 14:06:59;;;;;;;20.13;17.83;;;;;;;;;;5036840;28;20024;-70
2023/08/27 14:09:24;;;;;;;20.80;18.67;;;;;;;;;;5054487;28;20104;-70
2023/08/27 14:11:50;;;;;;;22.08;19.10;;;;;;;;;;5036578;28;20066;-70
2023/08/27 14:14:15;;;;;;;22.15;18.92;;;;;;;;;;5054432;28;20059;-70
2023/08/27 14:16:40;;;;;;;23.48;19.95;;;;;;;;;;5054391;28;20044;-70
2023/08/27 14:19:06;;;;;;;26.20;21.52;;;;;;;;;;5054320;28;20021;-69
2023/08/27 14:21:31;;;;;;;26.85;21.83;;;;;;;;;;5054300;28;20060;-70
2023/08/27 14:23:57;;;;;;;27.40;20.90;;;;;;;;;;5054260;28;20029;-70
2023/08/27 14:26:22;;;;;;;24.33;20.10;;;;;;;;;;5054429;28;20035;-70
2023/08/27 14:28:47;;;;;;;25.33;20.85;;;;;;;;;;5054228;28;20040;-70
2023/08/27 14:31:13;;;;;;;27.27;21.80;;;;;;;;;;5036513;28;20416;-70
2023/08/27 14:33:38;;;;;;;22.83;20.10;;;;;;;;;;5036250;28;20055;-70